sensor_id;sensor_type;location;lat;lon;timestamp;P1;durP1;ratioP1;P2;durP2;ratioP2
14348;SDS011;7258;50.376;8.742;2022-11-20T00:01:56;14.50;;;12.33;;
14348;SDS011;7258;50.376;8.742;2022-11-20T00:04:00;14.93;;;12.70;;
14348;SDS011;7258;50.376;8.742;2022-11-20T00:06:03;16.53;;;13.57;;
14348;SDS011;7258;50.376;8.742;2022-11-20T00:08:07;15.90;;;13.83;;
14348;SDS011;7258;50.376;8.742;2022-11-20T00:10:11;16.17;;;12.93;;
14348;SDS011;7258;50.376;8.742;2022-11-20T00:12:15;15.33;;;12.73;;
14348;SDS011;7258;50.376;8.742;2022-11-20T00:14:17;15.33;;;13.03;;
14348;SDS011;7258;50.376;8.742;2022-11-20T00:16:21;15.60;;;12.73;;
14348;SDS011;7258;50.376;8.742;2022-11-20T00:18:26;14.87;;;12.93;;
14348;SDS011;7258;50.376;8.742;2022-11-20T00:20:31;16.03;;;13.43;;
14348;SDS011;7258;50.376;8.742;2022-11-20T00:22:34;16.00;;;13.53;;
14348;SDS011;7258;50.376;8.742;2022-11-20T00:24:36;16.70;;;13.20;;
14348;SDS011;7258;50.376;8.742;2022-11-20T00:26:43;16.33;;;12.97;;
14348;SDS011;7258;50.376;8.742;2022-11-20T00:28:48;15.27;;;13.50;;
14348;SDS011;7258;50.376;8.742;2022-11-20T00:30:52;14.87;;;12.80;;
14348;SDS011;7258;50.376;8.742;2022-11-20T00:32:56;14.97;;;12.73;;
14348;SDS011;7258;50.376;8.742;2022-11-20T00:34:59;14.87;;;12.57;;
14348;SDS011;7258;50.376;8.742;2022-11-20T00:37:06;14.97;;;13.07;;
14348;SDS011;7258;50.376;8.742;2022-11-20T00:40:03;16.53;;;13.37;;
14348;SDS011;7258;50.376;8.742;2022-11-20T00:42:54;16.33;;;13.50;;
14348;SDS011;7258;50.376;8.742;2022-11-20T00:45:24;16.43;;;13.07;;
14348;SDS011;7258;50.376;8.742;2022-11-20T00:47:53;15.80;;;12.57;;
14348;SDS011;7258;50.376;8.742;2022-11-20T00:50:09;15.50;;;12.77;;
14348;SDS011;7258;50.376;8.742;2022-11-20T00:52:45;16.63;;;12.80;;
14348;SDS011;7258;50.376;8.742;2022-11-20T00:55:06;15.13;;;12.63;;
14348;SDS011;7258;50.376;8.742;2022-11-20T00:57:37;14.37;;;12.07;;
14348;SDS011;7258;50.376;8.742;2022-11-20T01:00:16;14.07;;;12.47;;
14348;SDS011;7258;50.376;8.742;2022-11-20T01:02:19;14.53;;;12.17;;
14348;SDS011;7258;50.376;8.742;2022-11-20T01:04:22;13.77;;;12.03;;
14348;SDS011;7258;50.376;8.742;2022-11-20T01:06:26;15.83;;;13.37;;
14348;SDS011;7258;50.376;8.742;2022-11-20T01:08:31;15.03;;;12.37;;
14348;SDS011;7258;50.376;8.742;2022-11-20T01:10:35;14.13;;;12.40;;
14348;SDS011;7258;50.376;8.742;2022-11-20T01:12:37;14.30;;;12.37;;
14348;SDS011;7258;50.376;8.742;2022-11-20T01:14:40;15.00;;;12.67;;
14348;SDS011;7258;50.376;8.742;2022-11-20T01:16:44;13.47;;;12.00;;
14348;SDS011;7258;50.376;8.742;2022-11-20T01:18:49;15.60;;;12.33;;
14348;SDS011;7258;50.376;8.742;2022-11-20T01:20:53;16.60;;;13.57;;
14348;SDS011;7258;50.376;8.742;2022-11-20T01:22:56;16.53;;;12.87;;
14348;SDS011;7258;50.376;8.742;2022-11-20T01:25:00;15.53;;;12.63;;
14348;SDS011;7258;50.376;8.742;2022-11-20T01:27:03;15.07;;;12.93;;
14348;SDS011;7258;50.376;8.742;2022-11-20T01:29:06;14.57;;;12.03;;
14348;SDS011;7258;50.376;8.742;2022-11-20T01:31:10;15.23;;;12.23;;
14348;SDS011;7258;50.376;8.742;2022-11-20T01:33:14;14.97;;;13.10;;
14348;SDS011;7258;50.376;8.742;2022-11-20T01:35:17;14.87;;;12.77;;
14348;SDS011;7258;50.376;8.742;2022-11-20T01:37:20;13.70;;;12.10;;
14348;SDS011;7258;50.376;8.742;2022-11-20T01:39:23;16.67;;;13.23;;
14348;SDS011;7258;50.376;8.742;2022-11-20T01:41:29;14.60;;;12.37;;
14348;SDS011;7258;50.376;8.742;2022-11-20T01:43:50;17.53;;;13.67;;
14348;SDS011;7258;50.376;8.742;2022-11-20T01:45:57;16.47;;;13.60;;
14348;SDS011;7258;50.376;8.742;2022-11-20T01:48:02;15.77;;;12.73;;
14348;SDS011;7258;50.376;8.742;2022-11-20T01:50:08;16.73;;;12.97;;
14348;SDS011;7258;50.376;8.742;2022-11-20T01:52:16;15.27;;;12.70;;
14348;SDS011;7258;50.376;8.742;2022-11-20T01:54:23;17.23;;;12.53;;
14348;SDS011;7258;50.376;8.742;2022-11-20T01:56:29;15.87;;;12.50;;
14348;SDS011;7258;50.376;8.742;2022-11-20T01:58:35;15.27;;;13.20;;
14348;SDS011;7258;50.376;8.742;2022-11-20T02:00:44;15.00;;;12.77;;
14348;SDS011;7258;50.376;8.742;2022-11-20T02:02:47;15.50;;;12.90;;
14348;SDS011;7258;50.376;8.742;2022-11-20T02:04:54;18.33;;;13.53;;
14348;SDS011;7258;50.376;8.742;2022-11-20T02:07:02;16.57;;;13.17;;
14348;SDS011;7258;50.376;8.742;2022-11-20T02:09:09;15.47;;;12.87;;
14348;SDS011;7258;50.376;8.742;2022-11-20T02:11:12;16.67;;;13.20;;
14348;SDS011;7258;50.376;8.742;2022-11-20T02:13:17;16.23;;;13.80;;
14348;SDS011;7258;50.376;8.742;2022-11-20T02:15:49;16.60;;;12.90;;
14348;SDS011;7258;50.376;8.742;2022-11-20T02:17:52;14.60;;;12.97;;
14348;SDS011;7258;50.376;8.742;2022-11-20T02:19:55;15.93;;;13.70;;
14348;SDS011;7258;50.376;8.742;2022-11-20T02:21:59;17.20;;;14.17;;
14348;SDS011;7258;50.376;8.742;2022-11-20T02:24:10;17.03;;;14.23;;
14348;SDS011;7258;50.376;8.742;2022-11-20T02:26:14;16.23;;;13.70;;
14348;SDS011;7258;50.376;8.742;2022-11-20T02:28:19;16.33;;;14.00;;
14348;SDS011;7258;50.376;8.742;2022-11-20T02:30:21;16.90;;;14.17;;
14348;SDS011;7258;50.376;8.742;2022-11-20T02:32:25;17.57;;;14.27;;
14348;SDS011;7258;50.376;8.742;2022-11-20T02:34:29;17.73;;;14.87;;
14348;SDS011;7258;50.376;8.742;2022-11-20T02:36:32;17.93;;;13.77;;
14348;SDS011;7258;50.376;8.742;2022-11-20T02:38:37;17.60;;;14.90;;
14348;SDS011;7258;50.376;8.742;2022-11-20T02:40:41;17.40;;;14.90;;
14348;SDS011;7258;50.376;8.742;2022-11-20T02:42:44;16.67;;;14.33;;
14348;SDS011;7258;50.376;8.742;2022-11-20T02:44:47;16.50;;;13.73;;
14348;SDS011;7258;50.376;8.742;2022-11-20T02:46:50;16.80;;;14.33;;
14348;SDS011;7258;50.376;8.742;2022-11-20T02:48:52;18.37;;;14.23;;
14348;SDS011;7258;50.376;8.742;2022-11-20T02:50:55;18.03;;;14.30;;
14348;SDS011;7258;50.376;8.742;2022-11-20T02:52:58;17.47;;;13.73;;
14348;SDS011;7258;50.376;8.742;2022-11-20T02:55:01;16.97;;;13.97;;
14348;SDS011;7258;50.376;8.742;2022-11-20T02:57:05;17.50;;;13.83;;
14348;SDS011;7258;50.376;8.742;2022-11-20T02:59:09;16.27;;;14.07;;
14348;SDS011;7258;50.376;8.742;2022-11-20T03:01:12;18.13;;;14.63;;
14348;SDS011;7258;50.376;8.742;2022-11-20T03:03:15;19.77;;;14.90;;
14348;SDS011;7258;50.376;8.742;2022-11-20T03:05:18;17.97;;;14.23;;
14348;SDS011;7258;50.376;8.742;2022-11-20T03:07:21;18.00;;;14.77;;
14348;SDS011;7258;50.376;8.742;2022-11-20T03:09:23;16.53;;;13.57;;
14348;SDS011;7258;50.376;8.742;2022-11-20T03:11:26;16.43;;;13.63;;
14348;SDS011;7258;50.376;8.742;2022-11-20T03:13:31;16.67;;;14.47;;
14348;SDS011;7258;50.376;8.742;2022-11-20T03:15:35;19.07;;;15.20;;
14348;SDS011;7258;50.376;8.742;2022-11-20T03:17:38;17.43;;;13.90;;
14348;SDS011;7258;50.376;8.742;2022-11-20T03:19:41;15.83;;;13.77;;
14348;SDS011;7258;50.376;8.742;2022-11-20T03:21:44;17.63;;;14.60;;
14348;SDS011;7258;50.376;8.742;2022-11-20T03:23:46;18.00;;;14.53;;
14348;SDS011;7258;50.376;8.742;2022-11-20T03:25:49;16.23;;;13.70;;
14348;SDS011;7258;50.376;8.742;2022-11-20T03:27:52;16.93;;;14.37;;
14348;SDS011;7258;50.376;8.742;2022-11-20T03:29:57;16.90;;;14.47;;
14348;SDS011;7258;50.376;8.742;2022-11-20T03:32:00;18.57;;;14.50;;
14348;SDS011;7258;50.376;8.742;2022-11-20T03:34:03;16.20;;;13.90;;
14348;SDS011;7258;50.376;8.742;2022-11-20T03:36:07;17.40;;;14.53;;
14348;SDS011;7258;50.376;8.742;2022-11-20T03:38:11;18.10;;;14.70;;
14348;SDS011;7258;50.376;8.742;2022-11-20T03:40:14;16.73;;;14.23;;
14348;SDS011;7258;50.376;8.742;2022-11-20T03:42:17;16.53;;;14.10;;
14348;SDS011;7258;50.376;8.742;2022-11-20T03:44:37;18.37;;;14.50;;
14348;SDS011;7258;50.376;8.742;2022-11-20T03:46:41;18.67;;;14.43;;
14348;SDS011;7258;50.376;8.742;2022-11-20T03:48:44;15.80;;;13.80;;
14348;SDS011;7258;50.376;8.742;2022-11-20T03:50:52;17.33;;;14.60;;
14348;SDS011;7258;50.376;8.742;2022-11-20T03:52:55;19.17;;;15.10;;
14348;SDS011;7258;50.376;8.742;2022-11-20T03:54:58;16.97;;;14.60;;
14348;SDS011;7258;50.376;8.742;2022-11-20T03:57:01;17.97;;;14.80;;
14348;SDS011;7258;50.376;8.742;2022-11-20T03:59:04;16.87;;;14.70;;
14348;SDS011;7258;50.376;8.742;2022-11-20T04:01:07;18.00;;;14.83;;
14348;SDS011;7258;50.376;8.742;2022-11-20T04:03:13;17.60;;;14.67;;
14348;SDS011;7258;50.376;8.742;2022-11-20T04:05:16;17.60;;;14.63;;
14348;SDS011;7258;50.376;8.742;2022-11-20T04:07:18;16.27;;;14.00;;
14348;SDS011;7258;50.376;8.742;2022-11-20T04:09:21;18.00;;;15.07;;
14348;SDS011;7258;50.376;8.742;2022-11-20T04:11:25;17.50;;;14.57;;
14348;SDS011;7258;50.376;8.742;2022-11-20T04:13:29;17.83;;;14.27;;
14348;SDS011;7258;50.376;8.742;2022-11-20T04:15:31;18.67;;;14.50;;
14348;SDS011;7258;50.376;8.742;2022-11-20T04:17:38;17.57;;;14.80;;
14348;SDS011;7258;50.376;8.742;2022-11-20T04:19:42;17.77;;;15.10;;
14348;SDS011;7258;50.376;8.742;2022-11-20T04:21:45;16.90;;;14.80;;
14348;SDS011;7258;50.376;8.742;2022-11-20T04:23:48;17.50;;;14.87;;
14348;SDS011;7258;50.376;8.742;2022-11-20T04:25:51;18.27;;;15.23;;
14348;SDS011;7258;50.376;8.742;2022-11-20T04:27:54;19.33;;;15.73;;
14348;SDS011;7258;50.376;8.742;2022-11-20T04:29:57;19.27;;;15.90;;
14348;SDS011;7258;50.376;8.742;2022-11-20T04:32:00;20.37;;;15.50;;
14348;SDS011;7258;50.376;8.742;2022-11-20T04:34:03;20.57;;;15.37;;
14348;SDS011;7258;50.376;8.742;2022-11-20T04:36:11;21.20;;;16.53;;
14348;SDS011;7258;50.376;8.742;2022-11-20T04:38:15;19.00;;;15.30;;
14348;SDS011;7258;50.376;8.742;2022-11-20T04:40:18;18.73;;;15.27;;
14348;SDS011;7258;50.376;8.742;2022-11-20T04:42:21;17.80;;;15.27;;
14348;SDS011;7258;50.376;8.742;2022-11-20T04:44:33;17.10;;;14.33;;
14348;SDS011;7258;50.376;8.742;2022-11-20T04:46:36;17.87;;;14.77;;
14348;SDS011;7258;50.376;8.742;2022-11-20T04:48:40;19.50;;;15.30;;
14348;SDS011;7258;50.376;8.742;2022-11-20T04:50:43;17.53;;;14.43;;
14348;SDS011;7258;50.376;8.742;2022-11-20T04:52:47;18.33;;;15.60;;
14348;SDS011;7258;50.376;8.742;2022-11-20T04:54:50;18.10;;;15.27;;
14348;SDS011;7258;50.376;8.742;2022-11-20T04:56:54;19.07;;;15.00;;
14348;SDS011;7258;50.376;8.742;2022-11-20T04:58:59;17.73;;;15.17;;
14348;SDS011;7258;50.376;8.742;2022-11-20T05:01:03;19.13;;;15.63;;
14348;SDS011;7258;50.376;8.742;2022-11-20T05:03:07;16.60;;;14.20;;
14348;SDS011;7258;50.376;8.742;2022-11-20T05:05:09;18.07;;;14.73;;
14348;SDS011;7258;50.376;8.742;2022-11-20T05:07:12;19.13;;;15.67;;
14348;SDS011;7258;50.376;8.742;2022-11-20T05:09:16;20.17;;;16.67;;
14348;SDS011;7258;50.376;8.742;2022-11-20T05:11:20;22.10;;;17.03;;
14348;SDS011;7258;50.376;8.742;2022-11-20T05:13:23;19.90;;;16.13;;
14348;SDS011;7258;50.376;8.742;2022-11-20T05:15:26;19.90;;;16.77;;
14348;SDS011;7258;50.376;8.742;2022-11-20T05:17:29;19.00;;;15.60;;
14348;SDS011;7258;50.376;8.742;2022-11-20T05:19:32;18.73;;;16.17;;
14348;SDS011;7258;50.376;8.742;2022-11-20T05:21:35;20.50;;;16.20;;
14348;SDS011;7258;50.376;8.742;2022-11-20T05:23:38;19.37;;;16.40;;
14348;SDS011;7258;50.376;8.742;2022-11-20T05:25:43;20.00;;;16.13;;
14348;SDS011;7258;50.376;8.742;2022-11-20T05:27:45;20.80;;;17.10;;
14348;SDS011;7258;50.376;8.742;2022-11-20T05:29:48;18.37;;;15.03;;
14348;SDS011;7258;50.376;8.742;2022-11-20T05:31:51;20.90;;;17.20;;
14348;SDS011;7258;50.376;8.742;2022-11-20T05:33:56;21.20;;;16.60;;
14348;SDS011;7258;50.376;8.742;2022-11-20T05:35:59;19.53;;;15.57;;
14348;SDS011;7258;50.376;8.742;2022-11-20T05:38:02;18.77;;;15.57;;
14348;SDS011;7258;50.376;8.742;2022-11-20T05:40:06;21.20;;;17.40;;
14348;SDS011;7258;50.376;8.742;2022-11-20T05:42:11;19.47;;;15.93;;
14348;SDS011;7258;50.376;8.742;2022-11-20T05:44:32;21.87;;;16.77;;
14348;SDS011;7258;50.376;8.742;2022-11-20T05:46:35;21.43;;;16.13;;
14348;SDS011;7258;50.376;8.742;2022-11-20T05:48:37;19.57;;;16.37;;
14348;SDS011;7258;50.376;8.742;2022-11-20T05:50:41;21.50;;;16.27;;
14348;SDS011;7258;50.376;8.742;2022-11-20T05:52:44;18.60;;;16.30;;
14348;SDS011;7258;50.376;8.742;2022-11-20T05:54:47;20.40;;;16.20;;
14348;SDS011;7258;50.376;8.742;2022-11-20T05:56:50;19.13;;;15.63;;
14348;SDS011;7258;50.376;8.742;2022-11-20T05:58:54;19.57;;;16.07;;
14348;SDS011;7258;50.376;8.742;2022-11-20T06:01:03;21.17;;;16.43;;
14348;SDS011;7258;50.376;8.742;2022-11-20T06:03:07;19.63;;;15.83;;
14348;SDS011;7258;50.376;8.742;2022-11-20T06:05:10;17.90;;;15.87;;
14348;SDS011;7258;50.376;8.742;2022-11-20T06:07:13;22.60;;;17.73;;
14348;SDS011;7258;50.376;8.742;2022-11-20T06:09:16;19.47;;;16.27;;
14348;SDS011;7258;50.376;8.742;2022-11-20T06:11:19;21.10;;;16.80;;
14348;SDS011;7258;50.376;8.742;2022-11-20T06:13:22;20.60;;;16.43;;
14348;SDS011;7258;50.376;8.742;2022-11-20T06:15:27;20.03;;;16.50;;
14348;SDS011;7258;50.376;8.742;2022-11-20T06:17:29;19.03;;;16.30;;
14348;SDS011;7258;50.376;8.742;2022-11-20T06:19:32;20.90;;;17.00;;
14348;SDS011;7258;50.376;8.742;2022-11-20T06:21:35;20.63;;;17.43;;
14348;SDS011;7258;50.376;8.742;2022-11-20T06:23:38;21.50;;;17.13;;
14348;SDS011;7258;50.376;8.742;2022-11-20T06:25:41;20.37;;;17.07;;
14348;SDS011;7258;50.376;8.742;2022-11-20T06:27:45;22.07;;;17.67;;
14348;SDS011;7258;50.376;8.742;2022-11-20T06:29:47;22.57;;;17.47;;
14348;SDS011;7258;50.376;8.742;2022-11-20T06:31:51;22.27;;;17.50;;
14348;SDS011;7258;50.376;8.742;2022-11-20T06:33:54;25.30;;;18.83;;
14348;SDS011;7258;50.376;8.742;2022-11-20T06:35:57;26.43;;;19.63;;
14348;SDS011;7258;50.376;8.742;2022-11-20T06:38:09;24.00;;;18.47;;
14348;SDS011;7258;50.376;8.742;2022-11-20T06:40:13;25.83;;;19.97;;
14348;SDS011;7258;50.376;8.742;2022-11-20T06:42:16;25.70;;;20.37;;
14348;SDS011;7258;50.376;8.742;2022-11-20T06:44:18;24.47;;;20.07;;
14348;SDS011;7258;50.376;8.742;2022-11-20T06:46:21;24.03;;;19.53;;
14348;SDS011;7258;50.376;8.742;2022-11-20T06:48:25;24.70;;;19.27;;
14348;SDS011;7258;50.376;8.742;2022-11-20T06:50:29;24.30;;;18.17;;
14348;SDS011;7258;50.376;8.742;2022-11-20T06:52:32;24.57;;;18.57;;
14348;SDS011;7258;50.376;8.742;2022-11-20T06:54:42;21.43;;;18.00;;
14348;SDS011;7258;50.376;8.742;2022-11-20T06:56:46;22.00;;;16.93;;
14348;SDS011;7258;50.376;8.742;2022-11-20T06:58:49;21.67;;;17.63;;
14348;SDS011;7258;50.376;8.742;2022-11-20T07:00:52;21.30;;;17.20;;
14348;SDS011;7258;50.376;8.742;2022-11-20T07:02:55;22.30;;;17.33;;
14348;SDS011;7258;50.376;8.742;2022-11-20T07:04:59;22.73;;;18.63;;
14348;SDS011;7258;50.376;8.742;2022-11-20T07:07:02;23.37;;;18.40;;
14348;SDS011;7258;50.376;8.742;2022-11-20T07:09:05;22.87;;;18.90;;
14348;SDS011;7258;50.376;8.742;2022-11-20T07:11:13;23.83;;;18.00;;
14348;SDS011;7258;50.376;8.742;2022-11-20T07:13:15;23.13;;;18.20;;
14348;SDS011;7258;50.376;8.742;2022-11-20T07:15:19;23.60;;;18.13;;
14348;SDS011;7258;50.376;8.742;2022-11-20T07:17:22;22.33;;;18.33;;
14348;SDS011;7258;50.376;8.742;2022-11-20T07:19:25;23.37;;;18.33;;
14348;SDS011;7258;50.376;8.742;2022-11-20T07:21:29;22.80;;;18.60;;
14348;SDS011;7258;50.376;8.742;2022-11-20T07:23:32;23.33;;;18.13;;
14348;SDS011;7258;50.376;8.742;2022-11-20T07:25:35;26.93;;;18.70;;
14348;SDS011;7258;50.376;8.742;2022-11-20T07:27:38;22.67;;;18.03;;
14348;SDS011;7258;50.376;8.742;2022-11-20T07:29:40;23.77;;;17.87;;
14348;SDS011;7258;50.376;8.742;2022-11-20T07:31:43;24.73;;;19.37;;
14348;SDS011;7258;50.376;8.742;2022-11-20T07:33:46;23.57;;;19.03;;
14348;SDS011;7258;50.376;8.742;2022-11-20T07:35:49;23.53;;;19.20;;
14348;SDS011;7258;50.376;8.742;2022-11-20T07:37:53;25.47;;;18.53;;
14348;SDS011;7258;50.376;8.742;2022-11-20T07:39:56;22.77;;;17.57;;
14348;SDS011;7258;50.376;8.742;2022-11-20T07:41:58;20.50;;;17.20;;
14348;SDS011;7258;50.376;8.742;2022-11-20T07:44:01;23.43;;;17.60;;
14348;SDS011;7258;50.376;8.742;2022-11-20T07:46:04;26.13;;;20.27;;
14348;SDS011;7258;50.376;8.742;2022-11-20T07:48:07;24.53;;;19.80;;
14348;SDS011;7258;50.376;8.742;2022-11-20T07:50:10;24.10;;;19.20;;
14348;SDS011;7258;50.376;8.742;2022-11-20T07:52:13;25.37;;;19.57;;
14348;SDS011;7258;50.376;8.742;2022-11-20T07:54:17;25.33;;;19.07;;
14348;SDS011;7258;50.376;8.742;2022-11-20T07:56:20;24.17;;;19.20;;
14348;SDS011;7258;50.376;8.742;2022-11-20T07:58:23;21.73;;;18.50;;
14348;SDS011;7258;50.376;8.742;2022-11-20T08:00:26;22.43;;;18.60;;
14348;SDS011;7258;50.376;8.742;2022-11-20T08:02:29;25.90;;;19.87;;
14348;SDS011;7258;50.376;8.742;2022-11-20T08:04:32;20.50;;;17.40;;
14348;SDS011;7258;50.376;8.742;2022-11-20T08:06:35;23.47;;;18.60;;
14348;SDS011;7258;50.376;8.742;2022-11-20T08:08:38;24.50;;;19.47;;
14348;SDS011;7258;50.376;8.742;2022-11-20T08:10:45;23.77;;;18.40;;
14348;SDS011;7258;50.376;8.742;2022-11-20T08:12:48;25.20;;;19.37;;
14348;SDS011;7258;50.376;8.742;2022-11-20T08:15:10;21.93;;;18.03;;
14348;SDS011;7258;50.376;8.742;2022-11-20T08:17:13;20.30;;;17.73;;
14348;SDS011;7258;50.376;8.742;2022-11-20T08:19:17;22.40;;;18.43;;
14348;SDS011;7258;50.376;8.742;2022-11-20T08:21:21;23.30;;;19.23;;
14348;SDS011;7258;50.376;8.742;2022-11-20T08:23:25;23.63;;;19.73;;
14348;SDS011;7258;50.376;8.742;2022-11-20T08:25:28;23.40;;;18.87;;
14348;SDS011;7258;50.376;8.742;2022-11-20T08:27:32;25.30;;;19.87;;
14348;SDS011;7258;50.376;8.742;2022-11-20T08:29:39;24.60;;;20.17;;
14348;SDS011;7258;50.376;8.742;2022-11-20T08:31:42;26.63;;;20.83;;
14348;SDS011;7258;50.376;8.742;2022-11-20T08:33:44;23.90;;;19.13;;
14348;SDS011;7258;50.376;8.742;2022-11-20T08:35:47;22.10;;;19.33;;
14348;SDS011;7258;50.376;8.742;2022-11-20T08:37:50;23.97;;;20.17;;
14348;SDS011;7258;50.376;8.742;2022-11-20T08:39:53;24.93;;;20.13;;
14348;SDS011;7258;50.376;8.742;2022-11-20T08:41:58;23.63;;;19.73;;
14348;SDS011;7258;50.376;8.742;2022-11-20T08:44:03;26.30;;;21.10;;
14348;SDS011;7258;50.376;8.742;2022-11-20T08:46:07;26.23;;;21.67;;
14348;SDS011;7258;50.376;8.742;2022-11-20T08:48:10;27.47;;;20.73;;
14348;SDS011;7258;50.376;8.742;2022-11-20T08:50:13;23.70;;;19.33;;
14348;SDS011;7258;50.376;8.742;2022-11-20T08:52:17;26.57;;;21.50;;
14348;SDS011;7258;50.376;8.742;2022-11-20T08:54:20;24.97;;;20.40;;
14348;SDS011;7258;50.376;8.742;2022-11-20T08:56:23;25.10;;;20.27;;
14348;SDS011;7258;50.376;8.742;2022-11-20T08:58:26;27.03;;;19.97;;
14348;SDS011;7258;50.376;8.742;2022-11-20T09:00:33;26.60;;;21.00;;
14348;SDS011;7258;50.376;8.742;2022-11-20T09:02:36;24.03;;;20.30;;
14348;SDS011;7258;50.376;8.742;2022-11-20T09:04:39;24.43;;;20.20;;
14348;SDS011;7258;50.376;8.742;2022-11-20T09:06:42;24.73;;;20.23;;
14348;SDS011;7258;50.376;8.742;2022-11-20T09:08:44;26.37;;;21.20;;
14348;SDS011;7258;50.376;8.742;2022-11-20T09:10:50;26.27;;;21.27;;
14348;SDS011;7258;50.376;8.742;2022-11-20T09:12:53;27.33;;;21.80;;
14348;SDS011;7258;50.376;8.742;2022-11-20T09:14:57;27.03;;;21.20;;
14348;SDS011;7258;50.376;8.742;2022-11-20T09:17:01;28.07;;;22.00;;
14348;SDS011;7258;50.376;8.742;2022-11-20T09:19:04;24.73;;;20.27;;
14348;SDS011;7258;50.376;8.742;2022-11-20T09:21:27;25.37;;;21.07;;
14348;SDS011;7258;50.376;8.742;2022-11-20T09:23:31;22.83;;;19.73;;
14348;SDS011;7258;50.376;8.742;2022-11-20T09:25:34;24.67;;;20.30;;
14348;SDS011;7258;50.376;8.742;2022-11-20T09:27:37;28.13;;;20.73;;
14348;SDS011;7258;50.376;8.742;2022-11-20T09:29:42;25.17;;;20.47;;
14348;SDS011;7258;50.376;8.742;2022-11-20T09:31:45;22.73;;;19.53;;
14348;SDS011;7258;50.376;8.742;2022-11-20T09:33:49;21.90;;;19.00;;
14348;SDS011;7258;50.376;8.742;2022-11-20T09:35:52;24.00;;;19.93;;
14348;SDS011;7258;50.376;8.742;2022-11-20T09:37:55;23.13;;;19.47;;
14348;SDS011;7258;50.376;8.742;2022-11-20T09:39:58;26.33;;;20.70;;
14348;SDS011;7258;50.376;8.742;2022-11-20T09:42:07;27.43;;;21.60;;
14348;SDS011;7258;50.376;8.742;2022-11-20T09:44:25;25.30;;;20.77;;
14348;SDS011;7258;50.376;8.742;2022-11-20T09:46:40;27.00;;;21.37;;
14348;SDS011;7258;50.376;8.742;2022-11-20T09:51:31;25.00;;;20.33;;
14348;SDS011;7258;50.376;8.742;2022-11-20T09:53:45;24.10;;;20.17;;
14348;SDS011;7258;50.376;8.742;2022-11-20T09:55:55;24.93;;;19.80;;
14348;SDS011;7258;50.376;8.742;2022-11-20T09:57:58;25.50;;;20.20;;
14348;SDS011;7258;50.376;8.742;2022-11-20T10:00:03;21.83;;;18.97;;
14348;SDS011;7258;50.376;8.742;2022-11-20T10:02:14;25.77;;;20.90;;
14348;SDS011;7258;50.376;8.742;2022-11-20T10:04:22;25.27;;;20.47;;
14348;SDS011;7258;50.376;8.742;2022-11-20T10:06:28;25.37;;;20.30;;
14348;SDS011;7258;50.376;8.742;2022-11-20T10:08:34;25.37;;;20.53;;
14348;SDS011;7258;50.376;8.742;2022-11-20T10:10:44;25.73;;;20.13;;
14348;SDS011;7258;50.376;8.742;2022-11-20T10:12:57;25.73;;;20.40;;
14348;SDS011;7258;50.376;8.742;2022-11-20T10:15:12;27.87;;;21.43;;
14348;SDS011;7258;50.376;8.742;2022-11-20T10:17:43;23.07;;;20.60;;
14348;SDS011;7258;50.376;8.742;2022-11-20T10:20:01;27.63;;;21.67;;
14348;SDS011;7258;50.376;8.742;2022-11-20T10:22:15;25.23;;;20.23;;
14348;SDS011;7258;50.376;8.742;2022-11-20T10:24:33;26.83;;;21.53;;
14348;SDS011;7258;50.376;8.742;2022-11-20T10:26:48;27.57;;;22.33;;
14348;SDS011;7258;50.376;8.742;2022-11-20T10:29:05;29.13;;;22.93;;
14348;SDS011;7258;50.376;8.742;2022-11-20T10:31:14;30.07;;;23.07;;
14348;SDS011;7258;50.376;8.742;2022-11-20T10:33:29;25.67;;;21.27;;
14348;SDS011;7258;50.376;8.742;2022-11-20T10:35:59;27.70;;;21.93;;
14348;SDS011;7258;50.376;8.742;2022-11-20T10:38:09;31.73;;;23.50;;
14348;SDS011;7258;50.376;8.742;2022-11-20T10:40:20;29.03;;;22.57;;
14348;SDS011;7258;50.376;8.742;2022-11-20T10:42:30;28.03;;;22.60;;
14348;SDS011;7258;50.376;8.742;2022-11-20T10:44:38;27.07;;;21.73;;
14348;SDS011;7258;50.376;8.742;2022-11-20T10:47:11;31.53;;;23.63;;
14348;SDS011;7258;50.376;8.742;2022-11-20T10:49:16;31.90;;;25.60;;
14348;SDS011;7258;50.376;8.742;2022-11-20T10:51:27;30.07;;;23.83;;
14348;SDS011;7258;50.376;8.742;2022-11-20T10:53:42;27.63;;;22.13;;
14348;SDS011;7258;50.376;8.742;2022-11-20T10:55:54;29.20;;;23.40;;
14348;SDS011;7258;50.376;8.742;2022-11-20T10:58:01;26.40;;;21.63;;
14348;SDS011;7258;50.376;8.742;2022-11-20T11:00:12;30.57;;;24.03;;
14348;SDS011;7258;50.376;8.742;2022-11-20T11:02:19;29.30;;;22.43;;
14348;SDS011;7258;50.376;8.742;2022-11-20T11:04:32;29.60;;;22.63;;
14348;SDS011;7258;50.376;8.742;2022-11-20T11:06:45;29.77;;;23.97;;
14348;SDS011;7258;50.376;8.742;2022-11-20T11:08:50;27.50;;;22.63;;
14348;SDS011;7258;50.376;8.742;2022-11-20T11:10:56;26.20;;;20.43;;
14348;SDS011;7258;50.376;8.742;2022-11-20T11:13:01;25.60;;;20.63;;
14348;SDS011;7258;50.376;8.742;2022-11-20T11:15:04;27.70;;;22.57;;
14348;SDS011;7258;50.376;8.742;2022-11-20T11:17:17;27.87;;;21.03;;
14348;SDS011;7258;50.376;8.742;2022-11-20T11:19:26;28.73;;;21.50;;
14348;SDS011;7258;50.376;8.742;2022-11-20T11:21:29;28.83;;;22.57;;
14348;SDS011;7258;50.376;8.742;2022-11-20T11:23:33;27.47;;;21.43;;
14348;SDS011;7258;50.376;8.742;2022-11-20T11:25:38;28.17;;;21.87;;
14348;SDS011;7258;50.376;8.742;2022-11-20T11:27:45;29.17;;;22.93;;
14348;SDS011;7258;50.376;8.742;2022-11-20T11:29:48;28.77;;;22.13;;
14348;SDS011;7258;50.376;8.742;2022-11-20T11:32:02;29.27;;;22.33;;
14348;SDS011;7258;50.376;8.742;2022-11-20T11:34:06;27.07;;;20.90;;
14348;SDS011;7258;50.376;8.742;2022-11-20T11:36:16;26.03;;;21.27;;
14348;SDS011;7258;50.376;8.742;2022-11-20T11:38:23;28.47;;;22.07;;
14348;SDS011;7258;50.376;8.742;2022-11-20T11:40:33;25.70;;;20.60;;
14348;SDS011;7258;50.376;8.742;2022-11-20T11:42:41;26.27;;;21.10;;
14348;SDS011;7258;50.376;8.742;2022-11-20T11:44:46;26.63;;;21.10;;
14348;SDS011;7258;50.376;8.742;2022-11-20T11:47:08;28.57;;;22.13;;
14348;SDS011;7258;50.376;8.742;2022-11-20T11:49:15;27.70;;;21.87;;
14348;SDS011;7258;50.376;8.742;2022-11-20T11:51:19;25.60;;;19.97;;
14348;SDS011;7258;50.376;8.742;2022-11-20T11:53:23;26.70;;;20.10;;
14348;SDS011;7258;50.376;8.742;2022-11-20T11:55:30;27.83;;;21.27;;
14348;SDS011;7258;50.376;8.742;2022-11-20T11:57:39;26.07;;;20.23;;
14348;SDS011;7258;50.376;8.742;2022-11-20T11:59:53;24.87;;;20.10;;
14348;SDS011;7258;50.376;8.742;2022-11-20T12:02:03;25.63;;;19.90;;
14348;SDS011;7258;50.376;8.742;2022-11-20T12:04:33;30.87;;;24.57;;
14348;SDS011;7258;50.376;8.742;2022-11-20T12:06:45;30.60;;;22.63;;
14348;SDS011;7258;50.376;8.742;2022-11-20T12:08:56;29.33;;;23.50;;
14348;SDS011;7258;50.376;8.742;2022-11-20T12:11:04;25.70;;;19.83;;
14348;SDS011;7258;50.376;8.742;2022-11-20T12:13:28;23.63;;;19.27;;
14348;SDS011;7258;50.376;8.742;2022-11-20T12:15:39;24.63;;;19.60;;
14348;SDS011;7258;50.376;8.742;2022-11-20T12:17:47;25.40;;;19.23;;
14348;SDS011;7258;50.376;8.742;2022-11-20T12:19:50;23.33;;;19.30;;
14348;SDS011;7258;50.376;8.742;2022-11-20T12:21:54;23.60;;;19.00;;
14348;SDS011;7258;50.376;8.742;2022-11-20T12:24:20;22.83;;;18.33;;
14348;SDS011;7258;50.376;8.742;2022-11-20T12:26:48;21.60;;;17.87;;
14348;SDS011;7258;50.376;8.742;2022-11-20T12:29:02;24.17;;;18.50;;
14348;SDS011;7258;50.376;8.742;2022-11-20T12:31:21;23.57;;;17.90;;
14348;SDS011;7258;50.376;8.742;2022-11-20T12:33:38;23.60;;;18.90;;